Time;durP1;ratioP1;P1;durP2;ratioP2;P2;SDS_P1;SDS_P2;PMS_P1;PMS_P2;Temp;Humidity;BMP_temperature;BMP_pressure;BME280_temperature;BME280_humidity;BME280_pressure;Samples;Min_cycle;Max_cycle;Signal;HPM_P1;HPM_P2
2023/01/03 00:01:28;;;;;;;10.70;7.00;;;10.10;99.90;;;;;;5000488;28;20460;-77
2023/01/03 00:03:55;;;;;;;10.57;7.32;;;10.10;99.90;;;;;;4993729;28;20395;-78
2023/01/03 00:06:30;;;;;;;10.75;6.85;;;10.10;99.90;;;;;;4995985;28;20034;-77
2023/01/03 00:08:58;;;;;;;8.68;6.07;;;10.10;99.90;;;;;;5001748;28;20030;-77
2023/01/03 00:14:17;;;;;;;8.98;6.28;;;10.10;99.90;;;;;;5012926;28;20072;-78
2023/01/03 00:16:43;;;;;;;13.90;6.53;;;10.10;99.90;;;;;;5017180;28;20458;-78
2023/01/03 00:19:11;;;;;;;9.63;5.78;;;10.10;99.90;;;;;;5014370;28;20560;-78
2023/01/03 00:21:38;;;;;;;7.07;5.13;;;10.10;99.90;;;;;;5016723;28;20034;-78
2023/01/03 00:24:04;;;;;;;9.00;5.70;;;10.10;99.90;;;;;;5014177;28;20068;-77
2023/01/03 00:26:31;;;;;;;9.98;5.85;;;10.10;99.90;;;;;;4998690;28;20077;-78
2023/01/03 00:28:57;;;;;;;7.70;6.10;;;10.00;99.90;;;;;;5012586;28;20022;-78
2023/01/03 00:31:23;;;;;;;8.88;6.90;;;10.00;99.90;;;;;;5017743;28;20029;-77
2023/01/03 00:33:49;;;;;;;9.73;6.57;;;10.00;99.90;;;;;;5015543;28;20075;-78
2023/01/03 00:36:15;;;;;;;17.80;8.05;;;10.00;99.90;;;;;;5018294;28;20034;-78
2023/01/03 00:38:42;;;;;;;15.38;7.93;;;10.00;99.90;;;;;;4999566;28;20084;-78
2023/01/03 00:41:14;;;;;;;8.68;6.75;;;9.90;99.90;;;;;;5018587;28;20028;-78
2023/01/03 00:43:41;;;;;;;11.70;6.93;;;10.00;99.90;;;;;;4997290;28;20030;-78
2023/01/03 00:46:09;;;;;;;10.55;7.15;;;9.90;99.90;;;;;;5018824;28;20030;-78
2023/01/03 00:48:35;;;;;;;10.73;7.25;;;9.90;99.90;;;;;;5008908;28;20022;-78
2023/01/03 00:51:07;;;;;;;12.20;7.47;;;9.90;99.90;;;;;;5000533;28;20546;-78
2023/01/03 00:53:35;;;;;;;11.73;7.03;;;9.90;99.90;;;;;;5010418;28;20561;-78
2023/01/03 00:56:06;;;;;;;9.77;6.38;;;9.90;99.90;;;;;;5000496;28;20038;-78
2023/01/03 00:58:33;;;;;;;8.63;5.97;;;9.90;99.90;;;;;;5011725;28;20022;-79
2023/01/03 01:01:10;;;;;;;12.38;6.70;;;9.90;99.90;;;;;;5018203;28;20033;-78
2023/01/03 01:03:39;;;;;;;10.10;7.10;;;9.90;99.90;;;;;;5011858;28;20030;-78
2023/01/03 01:06:16;;;;;;;11.60;7.45;;;9.90;99.90;;;;;;5017771;28;20471;-79
2023/01/03 01:08:43;;;;;;;10.60;7.00;;;9.90;99.90;;;;;;4994427;28;20384;-78
2023/01/03 01:11:09;;;;;;;8.07;5.97;;;9.80;99.90;;;;;;5017803;28;20132;-78
2023/01/03 01:13:36;;;;;;;9.18;5.78;;;9.80;99.90;;;;;;4994015;28;20398;-79
2023/01/03 01:16:05;;;;;;;7.97;4.82;;;9.70;99.90;;;;;;5000500;28;20553;-78
2023/01/03 01:18:32;;;;;;;10.15;5.35;;;9.70;99.90;;;;;;5010785;28;20505;-77
2023/01/03 01:20:58;;;;;;;7.47;4.85;;;9.70;99.90;;;;;;5017515;28;20030;-77
2023/01/03 01:23:24;;;;;;;8.18;5.38;;;9.70;99.90;;;;;;5011368;28;20049;-77
2023/01/03 01:25:49;;;;;;;7.25;5.00;;;9.70;99.90;;;;;;4999521;28;20041;-78
2023/01/03 01:28:15;;;;;;;7.28;5.05;;;9.70;99.90;;;;;;4992074;28;20030;-78
2023/01/03 01:30:41;;;;;;;7.05;5.25;;;9.80;99.90;;;;;;5013636;28;20026;-78
2023/01/03 01:33:07;;;;;;;7.55;5.55;;;9.70;99.90;;;;;;4993001;28;20109;-77
2023/01/03 01:35:33;;;;;;;12.82;6.03;;;9.80;99.90;;;;;;5013353;28;20083;-78
2023/01/03 01:37:58;;;;;;;9.55;5.30;;;9.80;99.90;;;;;;5015168;28;20030;-78
2023/01/03 01:40:25;;;;;;;7.28;5.28;;;9.80;99.90;;;;;;4999665;28;20115;-78
2023/01/03 01:45:37;;;;;;;7.10;5.35;;;9.80;99.90;;;;;;5016480;28;20516;-78
2023/01/03 01:48:10;;;;;;;10.15;4.78;;;9.80;99.90;;;;;;5009430;28;20029;-78
2023/01/03 01:50:38;;;;;;;12.30;5.90;;;9.80;99.90;;;;;;4999234;28;20021;-77
2023/01/03 01:53:27;;;;;;;8.98;5.05;;;9.90;99.90;;;;;;5009392;28;20058;-78
2023/01/03 01:56:04;;;;;;;6.35;4.75;;;9.90;99.90;;;;;;4989830;28;20493;-79
2023/01/03 01:58:40;;;;;;;6.22;4.97;;;9.90;99.90;;;;;;5010897;28;20461;-78
2023/01/03 02:01:09;;;;;;;7.57;5.13;;;9.90;99.90;;;;;;5017296;28;20053;-78
2023/01/03 02:03:36;;;;;;;8.13;4.78;;;10.00;99.90;;;;;;5009379;28;20506;-78
2023/01/03 02:06:04;;;;;;;7.95;5.22;;;10.00;99.90;;;;;;5017199;28;20037;-78
2023/01/03 02:08:30;;;;;;;9.88;6.15;;;9.90;99.90;;;;;;5009624;28;20045;-78
2023/01/03 02:11:08;;;;;;;10.40;7.38;;;10.00;99.90;;;;;;5017090;28;20018;-78
2023/01/03 02:14:11;;;;;;;10.82;6.22;;;9.90;99.90;;;;;;5010189;28;20033;-78
2023/01/03 02:17:09;;;;;;;7.75;6.43;;;10.00;99.90;;;;;;5013372;28;20026;-78
2023/01/03 02:19:57;;;;;;;13.55;6.10;;;9.90;99.90;;;;;;4989707;28;20062;-78
2023/01/03 02:22:35;;;;;;;9.32;6.45;;;10.00;99.90;;;;;;5012356;28;20429;-78
2023/01/03 02:25:49;;;;;;;8.77;6.40;;;9.90;99.90;;;;;;5008289;28;20061;-79
2023/01/03 02:28:18;;;;;;;10.75;6.25;;;10.00;99.90;;;;;;5009129;28;20033;-78
2023/01/03 02:30:58;;;;;;;11.13;6.50;;;9.90;99.90;;;;;;5018864;28;20026;-78
2023/01/03 02:33:58;;;;;;;13.65;8.27;;;10.00;99.90;;;;;;5015588;28;20018;-78
2023/01/03 02:36:43;;;;;;;15.63;6.70;;;10.00;99.90;;;;;;5008175;28;20022;-79
2023/01/03 02:39:36;;;;;;;17.02;9.90;;;10.00;99.90;;;;;;5016849;28;20371;-79
2023/01/03 02:45:29;;;;;;;11.25;7.70;;;9.90;99.90;;;;;;5014787;28;20513;-78
2023/01/03 02:48:06;;;;;;;17.42;8.02;;;9.90;99.90;;;;;;5018317;28;20026;-79
2023/01/03 02:50:40;;;;;;;12.23;7.57;;;9.90;99.90;;;;;;5020063;28;20036;-78
2023/01/03 02:53:11;;;;;;;14.40;8.75;;;9.90;99.90;;;;;;5016786;28;20037;-78
2023/01/03 02:55:37;;;;;;;15.48;8.15;;;9.90;99.90;;;;;;5002776;28;20387;-79
2023/01/03 02:58:27;;;;;;;12.73;7.80;;;9.90;99.90;;;;;;4997126;28;20088;-78
2023/01/03 03:00:58;;;;;;;14.07;7.57;;;9.80;99.90;;;;;;5016352;28;20018;-78
2023/01/03 03:03:26;;;;;;;;;;;9.80;99.90;;;;;;5011905;28;20034;-78
2023/01/03 03:06:08;;;;;;;10.43;6.63;;;9.80;99.90;;;;;;5016697;28;19906;-78
2023/01/03 03:08:34;;;;;;;9.45;6.88;;;9.80;99.90;;;;;;5011433;28;20494;-78
2023/01/03 03:14:05;;;;;;;11.73;6.93;;;9.80;99.90;;;;;;5013981;28;20041;-78
2023/01/03 03:16:52;;;;;;;9.85;6.80;;;9.80;99.90;;;;;;5018286;28;20086;-78
2023/01/03 03:25:40;;;;;;;14.10;7.07;;;9.80;99.90;;;;;;5011110;28;20065;-78
2023/01/03 03:31:05;;;;;;;14.50;7.25;;;9.80;99.90;;;;;;5017299;28;20165;-78
2023/01/03 03:33:34;;;;;;;12.98;6.93;;;9.80;99.90;;;;;;5012357;28;20390;-78
2023/01/03 03:36:11;;;;;;;10.85;7.28;;;9.70;99.90;;;;;;5000399;28;20111;-79
2023/01/03 03:38:41;;;;;;;8.45;6.10;;;9.70;99.90;;;;;;4997048;28;20113;-77
2023/01/03 03:47:41;;;;;;;8.77;6.25;;;9.70;99.90;;;;;;5016259;28;20533;-78
2023/01/03 03:50:39;;;;;;;13.32;5.85;;;9.70;99.90;;;;;;5001901;28;20025;-78
2023/01/03 03:53:08;;;;;;;13.40;6.57;;;9.80;99.90;;;;;;5000517;28;20037;-78
2023/01/03 03:55:53;;;;;;;11.40;6.20;;;9.80;99.90;;;;;;5019233;28;20114;-78
2023/01/03 03:58:23;;;;;;;10.57;6.40;;;9.70;99.90;;;;;;5008214;28;20026;-78
2023/01/03 04:00:51;;;;;;;9.90;6.10;;;9.70;99.90;;;;;;5019249;28;20029;-78
2023/01/03 04:03:19;;;;;;;12.07;7.00;;;9.70;99.90;;;;;;5010695;28;20045;-78
2023/01/03 04:05:57;;;;;;;14.65;6.90;;;9.70;99.90;;;;;;5001314;28;20033;-78
2023/01/03 04:08:23;;;;;;;8.13;5.60;;;9.70;99.90;;;;;;5011792;28;20022;-78
2023/01/03 04:10:49;;;;;;;11.80;6.40;;;9.70;99.90;;;;;;5019306;28;20022;-78
2023/01/03 04:13:15;;;;;;;8.07;5.70;;;9.60;99.90;;;;;;5014190;28;20072;-78
2023/01/03 04:15:41;;;;;;;9.98;6.80;;;9.70;99.90;;;;;;5019034;28;20544;-78
2023/01/03 04:18:06;;;;;;;12.85;6.88;;;9.60;99.90;;;;;;5011198;28;20041;-78
2023/01/03 04:20:32;;;;;;;14.10;7.05;;;9.60;99.90;;;;;;5001224;28;20022;-79
2023/01/03 04:22:58;;;;;;;8.18;6.20;;;9.60;99.90;;;;;;5012054;28;20030;-78
2023/01/03 04:25:24;;;;;;;11.07;6.32;;;9.60;99.90;;;;;;5000911;28;20069;-79
2023/01/03 04:27:50;;;;;;;10.63;6.63;;;9.60;99.90;;;;;;5012910;28;20484;-79
2023/01/03 04:30:16;;;;;;;9.52;6.20;;;9.60;99.90;;;;;;5014884;28;20026;-79
2023/01/03 04:32:42;;;;;;;10.40;6.55;;;9.60;99.90;;;;;;5012187;28;20376;-78
2023/01/03 04:35:08;;;;;;;10.13;6.18;;;9.60;99.90;;;;;;4998426;28;20080;-79
2023/01/03 04:37:34;;;;;;;12.23;6.57;;;9.60;99.90;;;;;;5014695;28;20038;-79
2023/01/03 04:40:00;;;;;;;8.57;5.22;;;9.60;99.90;;;;;;5016704;28;20096;-78
2023/01/03 04:45:11;;;;;;;11.55;6.45;;;9.60;99.90;;;;;;5017597;28;20163;-78
2023/01/03 04:47:36;;;;;;;10.20;6.40;;;9.60;99.90;;;;;;5014711;28;20034;-79
2023/01/03 04:50:02;;;;;;;11.15;6.80;;;9.60;99.90;;;;;;4999835;28;20101;-79
2023/01/03 04:52:28;;;;;;;11.18;6.15;;;9.60;99.90;;;;;;4994710;28;20081;-79
2023/01/03 04:54:54;;;;;;;15.02;6.45;;;9.60;99.90;;;;;;4996280;28;20023;-79
2023/01/03 04:57:20;;;;;;;10.65;6.72;;;9.60;99.90;;;;;;4995364;28;20483;-78
2023/01/03 04:59:46;;;;;;;12.52;5.97;;;9.60;99.90;;;;;;4999485;28;20028;-78
2023/01/03 05:02:12;;;;;;;9.13;5.43;;;9.60;99.90;;;;;;4995639;28;20030;-78
2023/01/03 05:04:37;;;;;;;8.32;6.00;;;9.60;99.90;;;;;;5012164;28;20033;-78
2023/01/03 05:07:03;;;;;;;10.13;7.45;;;9.60;99.90;;;;;;5014140;28;20152;-78
2023/01/03 05:09:29;;;;;;;17.73;7.10;;;9.60;99.90;;;;;;5013640;28;20022;-78
2023/01/03 05:11:55;;;;;;;11.18;6.78;;;9.70;99.90;;;;;;4996330;28;20034;-78
2023/01/03 05:14:21;;;;;;;9.55;7.25;;;9.70;99.90;;;;;;5015362;28;20026;-78
2023/01/03 05:16:47;;;;;;;12.45;6.43;;;9.70;99.90;;;;;;5015788;28;20036;-78
2023/01/03 05:19:12;;;;;;;9.07;6.75;;;9.70;99.90;;;;;;5011904;28;20022;-78
2023/01/03 05:27:07;;;;;;;10.80;5.85;;;9.70;99.90;;;;;;5013099;28;20072;-76
2023/01/03 05:29:34;;;;;;;14.25;6.72;;;9.80;99.90;;;;;;5013117;28;20101;-77
2023/01/03 05:32:00;;;;;;;13.40;7.13;;;9.70;99.90;;;;;;5013534;28;20053;-77
2023/01/03 05:34:26;;;;;;;11.60;6.53;;;9.70;99.90;;;;;;4999226;28;20505;-78
2023/01/03 05:36:52;;;;;;;10.48;6.00;;;9.70;99.90;;;;;;4995688;28;20038;-78
2023/01/03 05:39:17;;;;;;;10.27;5.90;;;9.80;99.90;;;;;;5014678;28;20033;-78
2023/01/03 05:41:58;;;;;;;9.23;6.38;;;9.80;99.90;;;;;;5014644;28;20031;-78
2023/01/03 05:44:29;;;;;;;9.18;6.10;;;9.80;99.90;;;;;;5007836;28;20509;-77
2023/01/03 05:46:56;;;;;;;10.52;5.80;;;9.80;99.90;;;;;;4996516;28;20033;-77
2023/01/03 05:49:22;;;;;;;16.88;6.18;;;9.80;99.90;;;;;;5012559;28;20033;-77
2023/01/03 05:51:48;;;;;;;10.25;5.70;;;9.80;99.90;;;;;;4997552;28;20026;-77
2023/01/03 05:54:14;;;;;;;8.00;6.00;;;9.80;99.90;;;;;;5012750;28;20026;-78
2023/01/03 05:56:40;;;;;;;12.45;5.85;;;9.80;99.90;;;;;;4998237;28;20096;-78
2023/01/03 05:59:06;;;;;;;11.77;6.07;;;9.80;99.90;;;;;;4999328;28;20030;-78
2023/01/03 06:01:32;;;;;;;11.48;7.07;;;9.80;99.90;;;;;;5015095;28;20021;-77
2023/01/03 06:03:59;;;;;;;9.63;6.22;;;9.80;99.90;;;;;;4994070;28;20437;-78
2023/01/03 06:06:25;;;;;;;15.10;6.90;;;9.80;99.90;;;;;;4998171;28;20060;-77
2023/01/03 06:08:51;;;;;;;9.80;6.63;;;9.80;99.90;;;;;;4999217;28;20029;-77
2023/01/03 06:11:17;;;;;;;9.85;6.22;;;9.80;99.90;;;;;;5016928;28;20033;-77
2023/01/03 06:13:44;;;;;;;12.13;7.30;;;9.80;99.90;;;;;;5008455;28;20087;-77
2023/01/03 06:18:57;;;;;;;11.98;6.15;;;9.80;99.90;;;;;;5010316;28;20036;-77
2023/01/03 06:21:23;;;;;;;15.00;6.95;;;9.80;99.90;;;;;;5016407;28;20481;-77
2023/01/03 06:23:49;;;;;;;8.55;6.07;;;9.80;99.90;;;;;;5007667;28;20030;-78
2023/01/03 06:26:16;;;;;;;12.00;6.47;;;9.80;99.90;;;;;;4996715;28;20105;-77
2023/01/03 06:28:43;;;;;;;10.35;6.40;;;9.80;99.90;;;;;;5007055;28;20046;-77
2023/01/03 06:31:09;;;;;;;8.80;6.68;;;9.80;99.90;;;;;;4995659;28;20026;-76
2023/01/03 06:33:35;;;;;;;12.43;7.15;;;9.80;99.90;;;;;;4993828;28;20033;-77
2023/01/03 06:36:07;;;;;;;7.47;5.97;;;9.80;99.90;;;;;;4996823;28;20018;-78
2023/01/03 06:38:33;;;;;;;8.75;6.65;;;9.80;99.90;;;;;;5014266;28;20034;-76
2023/01/03 06:40:59;;;;;;;9.15;6.65;;;9.80;99.90;;;;;;5016661;28;20084;-76
2023/01/03 06:43:25;;;;;;;13.05;7.07;;;9.80;99.90;;;;;;5013399;28;20030;-76
2023/01/03 06:54:21;;;;;;;11.05;6.45;;;9.80;99.90;;;;;;4997188;28;20053;-77
2023/01/03 06:56:48;;;;;;;13.15;7.22;;;9.80;99.90;;;;;;4996788;28;20030;-77
2023/01/03 06:59:13;;;;;;;15.43;7.95;;;9.80;99.90;;;;;;4989012;28;20034;-77
2023/01/03 07:01:39;;;;;;;11.88;7.65;;;9.80;99.90;;;;;;5010596;28;20022;-76
2023/01/03 07:04:05;;;;;;;11.90;7.57;;;9.80;99.90;;;;;;4989754;28;20030;-76
2023/01/03 07:06:31;;;;;;;11.70;7.72;;;9.80;99.90;;;;;;5014780;28;20022;-77
2023/01/03 07:08:57;;;;;;;14.70;9.95;;;9.80;99.90;;;;;;5006923;28;20026;-76
2023/01/03 07:11:22;;;;;;;19.38;8.63;;;9.80;99.90;;;;;;5015464;28;20113;-77
2023/01/03 07:13:58;;;;;;;20.60;8.65;;;9.80;99.90;;;;;;5013172;28;20108;-76
2023/01/03 07:16:28;;;;;;;42.63;24.33;;;9.80;99.90;;;;;;4998758;28;20026;-76
2023/01/03 07:18:54;;;;;;;23.38;13.77;;;9.80;99.90;;;;;;4999861;28;20030;-76
2023/01/03 07:21:25;;;;;;;36.80;21.80;;;9.70;99.90;;;;;;5002105;28;20112;-76
2023/01/03 07:23:56;;;;;;;24.63;14.05;;;9.80;99.90;;;;;;4997710;28;20030;-76
2023/01/03 07:26:23;;;;;;;34.50;24.00;;;9.70;99.90;;;;;;5019445;28;20050;-76
2023/01/03 07:28:50;;;;;;;22.58;10.60;;;9.70;99.90;;;;;;5010017;28;20104;-77
2023/01/03 07:31:15;;;;;;;20.45;9.63;;;9.70;99.90;;;;;;5018721;28;20018;-76
2023/01/03 07:33:41;;;;;;;23.00;9.65;;;9.70;99.90;;;;;;5012317;28;20481;-76
2023/01/03 07:36:09;;;;;;;20.75;8.75;;;9.70;99.90;;;;;;5018217;28;20025;-76
2023/01/03 07:38:36;;;;;;;14.60;9.23;;;9.70;99.90;;;;;;5014069;28;20060;-76
2023/01/03 07:41:03;;;;;;;23.90;10.15;;;9.70;99.90;;;;;;5018752;28;20033;-76
2023/01/03 07:43:38;;;;;;;20.90;8.88;;;9.70;99.90;;;;;;5008197;28;20072;-76
2023/01/03 07:46:04;;;;;;;19.23;9.38;;;9.70;99.90;;;;;;5017818;28;20589;-75
2023/01/03 07:48:30;;;;;;;13.07;8.13;;;9.70;99.90;;;;;;4997142;28;20137;-77
2023/01/03 07:50:57;;;;;;;20.02;8.80;;;9.70;99.90;;;;;;5019306;28;20676;-75
2023/01/03 07:53:23;;;;;;;20.27;10.27;;;9.70;99.90;;;;;;5014672;28;20046;-76
2023/01/03 07:55:49;;;;;;;20.27;8.90;;;9.60;99.90;;;;;;5018452;28;20034;-76
2023/01/03 07:58:15;;;;;;;22.70;10.75;;;9.60;99.90;;;;;;5013046;28;20076;-76
2023/01/03 08:00:41;;;;;;;22.40;9.07;;;9.50;99.90;;;;;;5019274;28;20026;-76
2023/01/03 08:03:08;;;;;;;13.18;7.68;;;9.50;99.90;;;;;;4993952;28;20053;-76
2023/01/03 08:05:34;;;;;;;18.13;8.75;;;9.60;99.90;;;;;;5017646;28;20030;-76
2023/01/03 08:08:02;;;;;;;16.33;7.93;;;9.50;99.90;;;;;;4989745;28;20022;-76
2023/01/03 08:13:18;;;;;;;18.58;7.47;;;9.60;99.90;;;;;;5012978;28;20682;-77
2023/01/03 08:15:55;;;;;;;14.43;7.65;;;9.60;99.90;;;;;;5000512;28;20053;-76
2023/01/03 08:18:26;;;;;;;11.93;7.85;;;9.60;99.90;;;;;;5015026;28;20109;-75
2023/01/03 08:20:55;;;;;;;34.83;19.35;;;9.60;99.90;;;;;;5018613;28;20030;-76
2023/01/03 08:23:25;;;;;;;14.68;8.57;;;9.60;99.90;;;;;;5011900;28;20133;-76
2023/01/03 08:25:51;;;;;;;19.27;10.77;;;9.70;99.90;;;;;;5017433;28;20078;-77
2023/01/03 08:28:17;;;;;;;17.33;8.07;;;9.60;99.90;;;;;;5009996;28;20057;-78
2023/01/03 08:30:48;;;;;;;20.60;9.13;;;9.70;99.90;;;;;;5014668;28;20032;-76
2023/01/03 08:33:17;;;;;;;16.35;8.45;;;9.70;99.90;;;;;;5011186;28;20022;-76
2023/01/03 08:35:55;;;;;;;215.65;106.38;;;9.80;99.90;;;;;;5013642;28;20053;-76
2023/01/03 08:38:27;;;;;;;18.83;9.52;;;9.90;99.90;;;;;;5014879;28;20037;-76
2023/01/03 08:40:54;;;;;;;17.90;10.85;;;10.00;99.90;;;;;;5015712;28;20022;-75
2023/01/03 08:43:21;;;;;;;13.15;6.88;;;10.10;99.90;;;;;;5013260;28;20450;-76
2023/01/03 08:45:47;;;;;;;12.68;6.82;;;10.10;99.90;;;;;;5017135;28;20091;-78
2023/01/03 08:48:14;;;;;;;16.60;7.65;;;10.10;99.90;;;;;;5009983;28;20037;-77
2023/01/03 08:50:41;;;;;;;15.80;8.13;;;10.10;99.90;;;;;;5016986;28;20072;-81
2023/01/03 08:53:07;;;;;;;12.60;6.80;;;10.10;99.90;;;;;;5015144;28;20022;-76
2023/01/03 08:55:33;;;;;;;8.27;6.32;;;10.10;99.90;;;;;;5017982;28;20021;-76
2023/01/03 08:57:59;;;;;;;10.48;6.88;;;10.20;99.90;;;;;;4991247;28;20041;-76
2023/01/03 09:00:26;;;;;;;12.73;6.15;;;10.20;99.90;;;;;;5015809;28;20022;-77
2023/01/03 09:02:52;;;;;;;60.67;30.17;;;10.20;99.90;;;;;;4992215;28;20380;-76
2023/01/03 09:05:17;;;;;;;148.90;69.32;;;10.30;99.90;;;;;;5016929;28;20026;-75
2023/01/03 09:07:43;;;;;;;332.48;158.77;;;10.40;99.90;;;;;;4994238;28;20076;-75
2023/01/03 09:10:10;;;;;;;16.58;9.35;;;10.40;99.90;;;;;;5016951;28;20490;-75
2023/01/03 09:12:36;;;;;;;83.13;41.75;;;10.50;99.90;;;;;;4996513;28;20080;-77
2023/01/03 09:15:02;;;;;;;161.48;79.97;;;10.50;99.90;;;;;;5016310;28;20034;-77
2023/01/03 09:17:28;;;;;;;156.52;81.32;;;10.60;99.90;;;;;;5012011;28;20080;-77
2023/01/03 09:19:54;;;;;;;39.58;21.42;;;10.70;99.90;;;;;;5010705;28;20053;-77
2023/01/03 09:22:20;;;;;;;90.43;47.97;;;10.70;99.90;;;;;;5012209;28;20070;-77
2023/01/03 09:24:46;;;;;;;14.25;8.05;;;10.70;99.90;;;;;;5011818;28;20374;-78
2023/01/03 09:27:11;;;;;;;11.20;6.75;;;10.80;99.90;;;;;;4995427;28;20034;-77
2023/01/03 09:29:37;;;;;;;12.00;6.68;;;10.80;99.90;;;;;;4998665;28;20560;-77
2023/01/03 09:32:03;;;;;;;31.13;15.75;;;10.80;99.90;;;;;;5013927;28;20022;-77
2023/01/03 09:34:29;;;;;;;10.88;6.70;;;10.90;99.90;;;;;;4995348;28;20398;-78
2023/01/03 09:36:55;;;;;;;13.63;6.35;;;10.80;99.90;;;;;;5015072;28;20049;-78
2023/01/03 09:39:21;;;;;;;10.10;5.47;;;10.90;99.90;;;;;;5014535;28;20026;-78
2023/01/03 09:43:11;;;;;;;9.40;5.68;;;10.80;99.90;;;;;;4997890;28;20034;-78
2023/01/03 09:44:36;;;;;;;12.45;5.60;;;10.90;99.90;;;;;;5012144;28;20030;-78
2023/01/03 09:47:03;;;;;;;9.80;5.25;;;10.90;99.90;;;;;;5015199;28;20022;-78
2023/01/03 09:49:29;;;;;;;5.95;4.93;;;10.90;99.90;;;;;;5015983;28;20101;-77
2023/01/03 10:04:10;;;;;;;11.00;5.82;;;11.10;99.90;;;;;;5015526;28;20044;-76
2023/01/03 10:06:36;;;;;;;;;;;11.10;99.90;;;;;;5009740;28;20161;-76
2023/01/03 10:09:32;;;;;;;11.88;5.60;;;11.10;99.90;;;;;;5019934;28;19917;-77
2023/01/03 10:12:30;;;;;;;8.43;5.45;;;11.20;99.90;;;;;;5017588;28;20024;-76
2023/01/03 10:15:19;;;;;;;13.73;6.15;;;11.30;99.90;;;;;;5002349;28;20145;-76
2023/01/03 10:18:07;;;;;;;10.00;5.20;;;11.30;99.90;;;;;;4998205;28;20037;-76
2023/01/03 10:20:59;;;;;;;9.38;5.55;;;11.40;99.90;;;;;;5000949;28;20124;-76
2023/01/03 10:23:25;;;;;;;12.90;6.47;;;11.40;99.90;;;;;;5009755;28;20093;-77
2023/01/03 10:25:51;;;;;;;13.50;5.60;;;11.40;99.90;;;;;;5023908;28;20451;-77
2023/01/03 10:28:36;;;;;;;7.85;5.30;;;11.50;99.90;;;;;;5002001;28;20048;-83
2023/01/03 10:31:30;;;;;;;11.05;5.50;;;11.40;99.90;;;;;;5004303;28;20024;-80
2023/01/03 10:33:56;;;;;;;7.30;5.03;;;11.40;99.90;;;;;;4996604;28;20042;-79
2023/01/03 10:36:22;;;;;;;13.07;5.93;;;11.50;99.90;;;;;;5015902;28;20105;-79
2023/01/03 10:39:08;;;;;;;10.18;5.45;;;11.60;99.90;;;;;;5015916;28;20033;-78
2023/01/03 10:41:47;;;;;;;13.05;5.38;;;11.70;99.90;;;;;;5015934;28;21306;-78
2023/01/03 10:44:29;;;;;;;7.45;4.82;;;11.70;99.90;;;;;;5014289;28;20105;-80
2023/01/03 10:46:57;;;;;;;12.50;5.15;;;11.80;99.90;;;;;;4999646;28;20022;-75
2023/01/03 10:49:29;;;;;;;8.10;5.63;;;11.90;99.90;;;;;;5011587;28;20030;-75
2023/01/03 10:52:13;;;;;;;14.75;5.38;;;11.90;99.90;;;;;;5003913;28;20029;-74
2023/01/03 10:54:42;;;;;;;7.88;4.72;;;11.80;99.90;;;;;;5021304;28;20080;-75
2023/01/03 10:57:42;;;;;;;10.90;5.28;;;11.80;99.90;;;;;;5001581;28;20026;-75
2023/01/03 11:00:26;;;;;;;18.73;6.40;;;11.80;99.90;;;;;;5018798;28;20018;-74
2023/01/03 11:02:54;;;;;;;13.45;5.25;;;11.70;99.90;;;;;;5019617;28;20108;-75
2023/01/03 11:05:25;;;;;;;10.25;5.20;;;11.90;99.90;;;;;;5020929;28;20026;-75
2023/01/03 11:07:57;;;;;;;7.13;4.82;;;12.00;99.90;;;;;;5018619;28;20029;-75
2023/01/03 11:10:27;;;;;;;13.70;5.28;;;12.10;99.90;;;;;;5010363;28;20034;-75
2023/01/03 11:12:53;;;;;;;12.65;5.95;;;12.30;99.90;;;;;;5000619;28;20022;-75
2023/01/03 11:15:31;;;;;;;9.15;5.05;;;12.50;99.90;;;;;;4996508;28;20121;-75
2023/01/03 11:18:02;;;;;;;11.48;5.90;;;12.50;99.90;;;;;;5020406;28;20100;-76
2023/01/03 11:20:54;;;;;;;8.52;4.47;;;12.30;99.90;;;;;;5025113;28;20429;-75
2023/01/03 11:23:51;;;;;;;11.55;4.50;;;12.00;99.90;;;;;;5003175;28;20053;-75
2023/01/03 11:26:32;;;;;;;10.18;4.00;;;11.90;99.90;;;;;;5004085;28;20050;-75
2023/01/03 11:29:25;;;;;;;11.00;4.53;;;11.70;99.90;;;;;;5001383;28;20117;-75
2023/01/03 11:32:14;;;;;;;12.80;4.43;;;11.60;99.90;;;;;;4998982;28;20058;-75
2023/01/03 11:35:01;;;;;;;8.63;3.83;;;11.50;99.90;;;;;;4982360;28;20018;-75
2023/01/03 11:38:21;;;;;;;8.73;4.30;;;11.50;99.90;;;;;;5003359;28;20030;-76
2023/01/03 11:41:08;;;;;;;7.95;4.93;;;11.50;99.90;;;;;;4984942;28;20026;-75
2023/01/03 11:43:49;;;;;;;8.23;4.00;;;11.50;99.90;;;;;;4983132;28;20046;-75
2023/01/03 11:46:41;;;;;;;15.73;8.88;;;11.50;99.90;;;;;;4984155;28;20034;-75
2023/01/03 11:49:16;;;;;;;4.85;3.35;;;11.60;99.90;;;;;;5003227;28;20517;-75
2023/01/03 11:51:57;;;;;;;10.20;5.10;;;11.80;99.90;;;;;;4980929;28;20450;-75
2023/01/03 11:54:25;;;;;;;8.20;4.55;;;12.00;99.90;;;;;;4995720;28;20033;-75
2023/01/03 11:56:52;;;;;;;11.25;3.83;;;12.30;99.90;;;;;;5001948;28;20038;-75
2023/01/03 11:59:18;;;;;;;10.50;4.53;;;12.70;99.90;;;;;;5008770;28;20506;-76
2023/01/03 12:02:25;;;;;;;8.57;4.72;;;12.90;99.90;;;;;;5002550;28;20030;-77
2023/01/03 12:05:15;;;;;;;10.95;3.67;;;13.00;99.90;;;;;;5001013;28;20145;-76
2023/01/03 12:08:05;;;;;;;10.77;4.43;;;13.10;99.90;;;;;;4998905;28;20030;-76
2023/01/03 12:10:56;;;;;;;11.37;4.00;;;12.90;99.90;;;;;;5002240;28;20669;-76
2023/01/03 12:13:41;;;;;;;7.32;3.58;;;12.90;99.90;;;;;;4994026;28;20054;-76
2023/01/03 12:16:07;;;;;;;6.20;3.67;;;12.70;99.90;;;;;;4992615;28;20026;-76
2023/01/03 12:18:51;;;;;;;7.65;4.15;;;12.60;99.90;;;;;;4999315;28;20026;-76
2023/01/03 12:21:31;;;;;;;19.73;9.93;;;12.70;99.90;;;;;;4998522;28;20105;-76
2023/01/03 12:24:24;;;;;;;6.80;3.47;;;12.60;99.90;;;;;;4999494;28;20511;-76
2023/01/03 12:27:03;;;;;;;4.93;3.15;;;12.80;99.90;;;;;;4976203;28;20499;-76
2023/01/03 12:29:42;;;;;;;5.55;3.63;;;12.80;99.90;;;;;;4982743;28;20368;-76
2023/01/03 12:32:24;;;;;;;9.93;3.80;;;12.90;99.90;;;;;;4997164;28;20032;-76
2023/01/03 12:35:10;;;;;;;5.35;3.47;;;13.00;99.90;;;;;;5005067;28;20037;-76
2023/01/03 12:37:39;;;;;;;19.10;9.77;;;13.10;99.90;;;;;;4997343;28;20034;-76
2023/01/03 12:40:29;;;;;;;9.00;3.88;;;13.40;99.90;;;;;;5004919;28;20104;-76
2023/01/03 12:43:04;;;;;;;11.60;3.83;;;13.70;99.90;;;;;;4999101;28;20070;-76
2023/01/03 12:45:50;;;;;;;7.93;3.65;;;13.90;99.90;;;;;;4987294;28;20041;-76
2023/01/03 12:48:55;;;;;;;8.82;4.63;;;13.70;99.90;;;;;;5002615;28;20056;-76
2023/01/03 12:51:23;;;;;;;9.85;4.03;;;13.60;99.90;;;;;;4972102;28;20047;-76
2023/01/03 12:54:23;;;;;;;5.82;3.97;;;13.40;99.90;;;;;;4994535;28;20490;-76
2023/01/03 12:56:52;;;;;;;12.40;4.55;;;13.30;99.90;;;;;;4996278;28;20081;-76
2023/01/03 12:59:55;;;;;;;8.40;4.68;;;13.10;99.90;;;;;;4994971;28;20051;-76
2023/01/03 13:02:41;;;;;;;8.40;4.72;;;13.00;99.90;;;;;;4993078;28;20046;-76
2023/01/03 13:05:46;;;;;;;14.07;5.30;;;12.90;99.90;;;;;;4999542;28;20454;-76
2023/01/03 13:08:28;;;;;;;6.80;4.50;;;12.70;99.90;;;;;;4977099;28;20068;-76
2023/01/03 13:10:59;;;;;;;6.55;4.00;;;12.60;99.90;;;;;;4981510;28;20034;-76
2023/01/03 13:13:25;;;;;;;8.85;4.10;;;12.60;99.90;;;;;;4994950;28;20022;-75
2023/01/03 13:15:52;;;;;;;12.57;4.15;;;12.50;99.90;;;;;;5007393;28;20030;-76
2023/01/03 13:18:21;;;;;;;4.00;3.10;;;12.60;99.90;;;;;;4995459;28;20026;-77
2023/01/03 13:20:53;;;;;;;6.38;3.75;;;12.60;99.90;;;;;;4988817;28;20148;-76
2023/01/03 13:23:40;;;;;;;8.80;3.15;;;12.60;99.90;;;;;;4993145;28;20449;-75
2023/01/03 13:26:23;;;;;;;5.65;3.30;;;12.60;99.90;;;;;;4983721;28;20077;-75
2023/01/03 13:28:50;;;;;;;8.85;3.47;;;12.50;99.90;;;;;;4978818;28;20030;-76
2023/01/03 13:31:16;;;;;;;7.15;3.20;;;12.50;99.90;;;;;;5000899;28;20485;-76
2023/01/03 13:34:08;;;;;;;6.85;2.30;;;12.50;99.90;;;;;;4993081;28;20099;-76
2023/01/03 13:37:05;;;;;;;8.25;2.40;;;12.50;99.90;;;;;;5000632;28;20556;-76
2023/01/03 13:39:45;;;;;;;4.95;2.40;;;12.50;99.90;;;;;;4978570;28;20082;-75
2023/01/03 13:42:29;;;;;;;8.32;2.58;;;12.50;99.90;;;;;;4976017;28;20022;-76
2023/01/03 13:45:38;;;;;;;7.10;2.58;;;12.40;99.90;;;;;;5001306;28;20037;-76
2023/01/03 13:48:13;;;;;;;4.22;2.55;;;12.40;99.90;;;;;;4993743;28;20033;-76
2023/01/03 13:50:39;;;;;;;6.95;3.20;;;12.30;99.90;;;;;;4999211;28;20030;-76
2023/01/03 13:53:28;;;;;;;3.85;3.20;;;12.30;99.90;;;;;;4994250;28;20075;-76
2023/01/03 13:56:24;;;;;;;7.63;3.17;;;12.30;99.90;;;;;;4984187;28;20113;-76
2023/01/03 13:59:01;;;;;;;5.28;3.00;;;12.30;99.90;;;;;;4997489;28;20026;-75
2023/01/03 14:01:42;;;;;;;9.05;3.63;;;12.30;99.90;;;;;;4981038;28;20121;-76
2023/01/03 14:04:35;;;;;;;;;;;12.30;99.90;;;;;;4997458;28;20026;-76
2023/01/03 14:07:23;;;;;;;4.72;2.50;;;12.30;99.90;;;;;;4990660;28;19957;-75
2023/01/03 14:10:27;;;;;;;8.45;3.38;;;12.30;99.90;;;;;;4993805;28;20080;-76
2023/01/03 14:13:07;;;;;;;7.70;3.15;;;12.30;99.90;;;;;;4944353;28;20042;-75
2023/01/03 14:15:33;;;;;;;7.87;2.93;;;12.20;99.90;;;;;;5000196;28;20065;-76
2023/01/03 14:18:27;;;;;;;5.65;2.83;;;12.20;99.90;;;;;;4998366;28;20062;-75